sensor_id;sensor_type;location;lat;lon;timestamp;temperature;humidity
17571;DHT22;8903;52.220;20.978;2022-12-17T00:01:02;-2.90;99.90
17571;DHT22;8903;52.220;20.978;2022-12-17T00:03:47;-2.90;99.90
17571;DHT22;8903;52.220;20.978;2022-12-17T00:06:32;-2.90;99.90
17571;DHT22;8903;52.220;20.978;2022-12-17T00:09:18;-3.00;99.90
17571;DHT22;8903;52.220;20.978;2022-12-17T00:12:04;-3.00;99.90
17571;DHT22;8903;52.220;20.978;2022-12-17T00:14:49;-3.00;99.90
17571;DHT22;8903;52.220;20.978;2022-12-17T00:17:33;-3.00;99.90
17571;DHT22;8903;52.220;20.978;2022-12-17T00:20:14;-3.10;99.90
17571;DHT22;8903;52.220;20.978;2022-12-17T00:22:59;-3.10;99.90
17571;DHT22;8903;52.220;20.978;2022-12-17T00:25:50;-3.10;99.90
17571;DHT22;8903;52.220;20.978;2022-12-17T00:28:35;-3.00;99.90
17571;DHT22;8903;52.220;20.978;2022-12-17T00:31:20;-3.00;99.90
17571;DHT22;8903;52.220;20.978;2022-12-17T00:34:04;-3.00;99.90
17571;DHT22;8903;52.220;20.978;2022-12-17T00:36:49;-3.00;99.90
17571;DHT22;8903;52.220;20.978;2022-12-17T00:39:33;-3.00;99.90
17571;DHT22;8903;52.220;20.978;2022-12-17T00:42:28;-3.00;99.90
17571;DHT22;8903;52.220;20.978;2022-12-17T00:45:13;-3.00;99.90
17571;DHT22;8903;52.220;20.978;2022-12-17T00:47:57;-3.00;99.90
17571;DHT22;8903;52.220;20.978;2022-12-17T00:50:41;-3.00;99.90
17571;DHT22;8903;52.220;20.978;2022-12-17T00:53:26;-3.00;99.90
17571;DHT22;8903;52.220;20.978;2022-12-17T00:56:10;-3.00;99.90
17571;DHT22;8903;52.220;20.978;2022-12-17T00:58:56;-2.90;99.90
17571;DHT22;8903;52.220;20.978;2022-12-17T01:01:41;-2.90;99.90
17571;DHT22;8903;52.220;20.978;2022-12-17T01:04:25;-3.00;99.90
17571;DHT22;8903;52.220;20.978;2022-12-17T01:07:10;-3.00;99.90
17571;DHT22;8903;52.220;20.978;2022-12-17T01:09:55;-3.00;99.90
17571;DHT22;8903;52.220;20.978;2022-12-17T01:12:40;-3.00;99.90
17571;DHT22;8903;52.220;20.978;2022-12-17T01:15:26;-3.00;99.90
17571;DHT22;8903;52.220;20.978;2022-12-17T01:18:16;-3.00;99.90
17571;DHT22;8903;52.220;20.978;2022-12-17T01:21:01;-3.00;99.90
17571;DHT22;8903;52.220;20.978;2022-12-17T01:23:46;-3.10;99.90
17571;DHT22;8903;52.220;20.978;2022-12-17T01:26:31;-3.10;99.90
17571;DHT22;8903;52.220;20.978;2022-12-17T01:29:15;-3.00;99.90
17571;DHT22;8903;52.220;20.978;2022-12-17T01:32:01;-3.00;99.90
17571;DHT22;8903;52.220;20.978;2022-12-17T01:34:46;-3.10;99.90
17571;DHT22;8903;52.220;20.978;2022-12-17T01:37:30;-3.10;99.90
17571;DHT22;8903;52.220;20.978;2022-12-17T01:40:15;-3.10;99.90
17571;DHT22;8903;52.220;20.978;2022-12-17T01:42:59;-3.10;99.90
17571;DHT22;8903;52.220;20.978;2022-12-17T01:45:46;-3.10;99.90
17571;DHT22;8903;52.220;20.978;2022-12-17T01:48:36;-3.00;99.90
17571;DHT22;8903;52.220;20.978;2022-12-17T01:51:23;-3.10;99.90
17571;DHT22;8903;52.220;20.978;2022-12-17T01:54:07;-3.10;99.90
17571;DHT22;8903;52.220;20.978;2022-12-17T01:56:53;-3.10;99.90
17571;DHT22;8903;52.220;20.978;2022-12-17T01:59:46;-3.10;99.90
17571;DHT22;8903;52.220;20.978;2022-12-17T02:02:39;-3.10;99.90
17571;DHT22;8903;52.220;20.978;2022-12-17T02:05:29;-3.10;99.90
17571;DHT22;8903;52.220;20.978;2022-12-17T02:08:22;-3.10;99.90
17571;DHT22;8903;52.220;20.978;2022-12-17T02:11:27;-3.10;99.90
17571;DHT22;8903;52.220;20.978;2022-12-17T02:14:18;-3.10;99.90
17571;DHT22;8903;52.220;20.978;2022-12-17T02:17:08;-3.10;99.90
17571;DHT22;8903;52.220;20.978;2022-12-17T02:20:05;-3.10;99.90
17571;DHT22;8903;52.220;20.978;2022-12-17T02:23:21;-3.10;99.90
17571;DHT22;8903;52.220;20.978;2022-12-17T02:26:16;-3.20;99.90
17571;DHT22;8903;52.220;20.978;2022-12-17T02:29:04;-3.10;99.90
17571;DHT22;8903;52.220;20.978;2022-12-17T02:31:50;-3.10;99.90
17571;DHT22;8903;52.220;20.978;2022-12-17T02:34:44;-3.10;99.90
17571;DHT22;8903;52.220;20.978;2022-12-17T02:37:29;-3.20;99.90
17571;DHT22;8903;52.220;20.978;2022-12-17T02:40:13;-3.20;99.90
17571;DHT22;8903;52.220;20.978;2022-12-17T02:43:13;-3.10;99.90
17571;DHT22;8903;52.220;20.978;2022-12-17T02:45:58;-3.10;99.90
17571;DHT22;8903;52.220;20.978;2022-12-17T02:48:43;-3.10;99.90
17571;DHT22;8903;52.220;20.978;2022-12-17T02:51:33;-3.10;99.90
17571;DHT22;8903;52.220;20.978;2022-12-17T02:54:33;-3.10;99.90
17571;DHT22;8903;52.220;20.978;2022-12-17T02:57:18;-3.20;99.90
17571;DHT22;8903;52.220;20.978;2022-12-17T03:00:07;-3.20;99.90
17571;DHT22;8903;52.220;20.978;2022-12-17T03:02:52;-3.20;99.90
17571;DHT22;8903;52.220;20.978;2022-12-17T03:05:37;-3.20;99.90
17571;DHT22;8903;52.220;20.978;2022-12-17T03:08:21;-3.20;99.90
17571;DHT22;8903;52.220;20.978;2022-12-17T03:11:20;-3.20;99.90
17571;DHT22;8903;52.220;20.978;2022-12-17T03:14:04;-3.20;99.90
17571;DHT22;8903;52.220;20.978;2022-12-17T03:16:48;-3.20;99.90
17571;DHT22;8903;52.220;20.978;2022-12-17T03:19:34;-3.20;99.90
17571;DHT22;8903;52.220;20.978;2022-12-17T03:22:18;-3.10;99.90
17571;DHT22;8903;52.220;20.978;2022-12-17T03:25:03;-3.10;99.90
17571;DHT22;8903;52.220;20.978;2022-12-17T03:27:47;-3.10;99.90
17571;DHT22;8903;52.220;20.978;2022-12-17T03:30:32;-3.10;99.90
17571;DHT22;8903;52.220;20.978;2022-12-17T03:33:17;-3.20;99.90
17571;DHT22;8903;52.220;20.978;2022-12-17T03:36:02;-3.20;99.90
17571;DHT22;8903;52.220;20.978;2022-12-17T03:38:47;-3.30;99.90
17571;DHT22;8903;52.220;20.978;2022-12-17T03:41:31;-3.30;99.90
17571;DHT22;8903;52.220;20.978;2022-12-17T03:44:16;-3.10;99.90
17571;DHT22;8903;52.220;20.978;2022-12-17T03:46:57;-3.40;99.90
17571;DHT22;8903;52.220;20.978;2022-12-17T03:49:41;-3.40;99.90
17571;DHT22;8903;52.220;20.978;2022-12-17T03:52:27;-3.40;99.90
17571;DHT22;8903;52.220;20.978;2022-12-17T03:55:11;-3.40;99.90
17571;DHT22;8903;52.220;20.978;2022-12-17T03:57:56;-3.30;99.90
17571;DHT22;8903;52.220;20.978;2022-12-17T04:00:40;-3.40;99.90
17571;DHT22;8903;52.220;20.978;2022-12-17T04:03:21;-3.40;99.90
17571;DHT22;8903;52.220;20.978;2022-12-17T04:06:05;-3.40;99.90
17571;DHT22;8903;52.220;20.978;2022-12-17T04:08:51;-3.40;99.90
17571;DHT22;8903;52.220;20.978;2022-12-17T04:11:35;-3.40;99.90
17571;DHT22;8903;52.220;20.978;2022-12-17T04:14:20;-3.50;99.90
17571;DHT22;8903;52.220;20.978;2022-12-17T04:17:04;-3.50;99.90
17571;DHT22;8903;52.220;20.978;2022-12-17T04:19:48;-3.50;99.90
17571;DHT22;8903;52.220;20.978;2022-12-17T04:22:37;-3.50;99.90
17571;DHT22;8903;52.220;20.978;2022-12-17T04:25:23;-3.60;99.90
17571;DHT22;8903;52.220;20.978;2022-12-17T04:28:08;-3.60;99.90
17571;DHT22;8903;52.220;20.978;2022-12-17T04:30:52;-3.60;99.90
17571;DHT22;8903;52.220;20.978;2022-12-17T04:33:37;-3.60;99.90
17571;DHT22;8903;52.220;20.978;2022-12-17T04:36:21;-3.60;99.90
17571;DHT22;8903;52.220;20.978;2022-12-17T04:39:05;-3.50;99.90
17571;DHT22;8903;52.220;20.978;2022-12-17T04:41:51;-3.50;99.90
17571;DHT22;8903;52.220;20.978;2022-12-17T04:44:36;-3.50;99.90
17571;DHT22;8903;52.220;20.978;2022-12-17T04:47:20;-3.60;99.90
17571;DHT22;8903;52.220;20.978;2022-12-17T04:50:04;-3.60;99.90
17571;DHT22;8903;52.220;20.978;2022-12-17T04:52:48;-3.60;99.90
17571;DHT22;8903;52.220;20.978;2022-12-17T04:55:33;-3.70;99.90
17571;DHT22;8903;52.220;20.978;2022-12-17T04:58:18;-3.70;99.90
17571;DHT22;8903;52.220;20.978;2022-12-17T05:01:03;-3.70;99.90
17571;DHT22;8903;52.220;20.978;2022-12-17T05:03:47;-3.70;99.90
17571;DHT22;8903;52.220;20.978;2022-12-17T05:06:31;-3.70;99.90
17571;DHT22;8903;52.220;20.978;2022-12-17T05:09:16;-3.70;99.90
17571;DHT22;8903;52.220;20.978;2022-12-17T05:12:00;-3.80;99.90
17571;DHT22;8903;52.220;20.978;2022-12-17T05:14:45;-3.80;99.90
17571;DHT22;8903;52.220;20.978;2022-12-17T05:17:30;-3.80;99.90
17571;DHT22;8903;52.220;20.978;2022-12-17T05:20:14;-3.80;99.90
17571;DHT22;8903;52.220;20.978;2022-12-17T05:23:04;-3.70;99.90
17571;DHT22;8903;52.220;20.978;2022-12-17T05:25:48;-3.70;99.90
17571;DHT22;8903;52.220;20.978;2022-12-17T05:28:32;-3.70;99.90
17571;DHT22;8903;52.220;20.978;2022-12-17T05:31:18;-3.70;99.90
17571;DHT22;8903;52.220;20.978;2022-12-17T05:34:03;-3.70;99.90
17571;DHT22;8903;52.220;20.978;2022-12-17T05:36:47;-3.70;99.90
17571;DHT22;8903;52.220;20.978;2022-12-17T05:39:31;-3.70;99.90
17571;DHT22;8903;52.220;20.978;2022-12-17T05:42:15;-3.70;99.90
17571;DHT22;8903;52.220;20.978;2022-12-17T05:45:00;-3.70;99.90
17571;DHT22;8903;52.220;20.978;2022-12-17T05:47:48;-3.80;99.90
17571;DHT22;8903;52.220;20.978;2022-12-17T05:50:32;-3.80;99.90
17571;DHT22;8903;52.220;20.978;2022-12-17T05:53:16;-3.80;99.90
17571;DHT22;8903;52.220;20.978;2022-12-17T05:56:01;-3.80;99.90
17571;DHT22;8903;52.220;20.978;2022-12-17T05:58:45;-3.90;99.90
17571;DHT22;8903;52.220;20.978;2022-12-17T06:01:30;-3.90;99.90
17571;DHT22;8903;52.220;20.978;2022-12-17T06:04:16;-3.90;99.90
17571;DHT22;8903;52.220;20.978;2022-12-17T06:07:00;-3.80;99.90
17571;DHT22;8903;52.220;20.978;2022-12-17T06:09:45;-3.80;99.90
17571;DHT22;8903;52.220;20.978;2022-12-17T06:12:29;-3.80;99.90
17571;DHT22;8903;52.220;20.978;2022-12-17T06:15:14;-3.90;99.90
17571;DHT22;8903;52.220;20.978;2022-12-17T06:17:58;-4.00;99.90
17571;DHT22;8903;52.220;20.978;2022-12-17T06:20:45;-4.00;99.90
17571;DHT22;8903;52.220;20.978;2022-12-17T06:23:29;-4.00;99.90
17571;DHT22;8903;52.220;20.978;2022-12-17T06:26:14;-3.90;99.90
17571;DHT22;8903;52.220;20.978;2022-12-17T06:28:58;-3.90;99.90
17571;DHT22;8903;52.220;20.978;2022-12-17T06:31:43;-3.90;99.90
17571;DHT22;8903;52.220;20.978;2022-12-17T06:34:27;-3.90;99.90
17571;DHT22;8903;52.220;20.978;2022-12-17T06:37:13;-3.90;99.90
17571;DHT22;8903;52.220;20.978;2022-12-17T06:39:57;-3.90;99.90
17571;DHT22;8903;52.220;20.978;2022-12-17T06:42:51;-3.90;99.90
17571;DHT22;8903;52.220;20.978;2022-12-17T06:45:35;-3.90;99.90
17571;DHT22;8903;52.220;20.978;2022-12-17T06:48:34;-3.90;99.90
17571;DHT22;8903;52.220;20.978;2022-12-17T06:51:19;-3.90;99.90
17571;DHT22;8903;52.220;20.978;2022-12-17T06:54:05;-3.90;99.90
17571;DHT22;8903;52.220;20.978;2022-12-17T06:56:49;-3.90;99.90
17571;DHT22;8903;52.220;20.978;2022-12-17T06:59:33;-3.90;99.90
17571;DHT22;8903;52.220;20.978;2022-12-17T07:02:18;-4.00;99.90
17571;DHT22;8903;52.220;20.978;2022-12-17T07:05:03;-4.00;99.90
17571;DHT22;8903;52.220;20.978;2022-12-17T07:07:55;-4.00;99.90
17571;DHT22;8903;52.220;20.978;2022-12-17T07:10:42;-4.10;99.90
17571;DHT22;8903;52.220;20.978;2022-12-17T07:13:38;-4.10;99.90
17571;DHT22;8903;52.220;20.978;2022-12-17T07:16:22;-4.10;99.90
17571;DHT22;8903;52.220;20.978;2022-12-17T07:19:07;-4.00;99.90
17571;DHT22;8903;52.220;20.978;2022-12-17T07:21:51;-4.00;99.90
17571;DHT22;8903;52.220;20.978;2022-12-17T07:24:35;-4.00;99.90
17571;DHT22;8903;52.220;20.978;2022-12-17T07:27:21;-4.00;99.90
17571;DHT22;8903;52.220;20.978;2022-12-17T07:30:11;-4.00;99.90
17571;DHT22;8903;52.220;20.978;2022-12-17T07:32:59;-4.00;99.90
17571;DHT22;8903;52.220;20.978;2022-12-17T07:35:44;-4.00;99.90
17571;DHT22;8903;52.220;20.978;2022-12-17T07:38:29;-4.00;99.90
17571;DHT22;8903;52.220;20.978;2022-12-17T07:41:13;-4.00;99.90
17571;DHT22;8903;52.220;20.978;2022-12-17T07:43:59;-4.00;99.90
17571;DHT22;8903;52.220;20.978;2022-12-17T07:46:43;-4.00;99.90
17571;DHT22;8903;52.220;20.978;2022-12-17T07:49:28;-4.00;99.90
17571;DHT22;8903;52.220;20.978;2022-12-17T07:52:13;-4.00;99.90
17571;DHT22;8903;52.220;20.978;2022-12-17T07:54:53;-4.00;99.90
17571;DHT22;8903;52.220;20.978;2022-12-17T07:57:38;-4.00;99.90
17571;DHT22;8903;52.220;20.978;2022-12-17T08:00:24;-4.00;99.90
17571;DHT22;8903;52.220;20.978;2022-12-17T08:03:08;-4.00;99.90
17571;DHT22;8903;52.220;20.978;2022-12-17T08:05:56;-4.00;99.90
17571;DHT22;8903;52.220;20.978;2022-12-17T08:08:41;-4.00;99.90
17571;DHT22;8903;52.220;20.978;2022-12-17T08:11:25;-4.00;99.90
17571;DHT22;8903;52.220;20.978;2022-12-17T08:14:10;-4.00;99.90
17571;DHT22;8903;52.220;20.978;2022-12-17T08:16:55;-4.00;99.90
17571;DHT22;8903;52.220;20.978;2022-12-17T08:19:40;-4.10;99.90
17571;DHT22;8903;52.220;20.978;2022-12-17T08:22:24;-4.10;99.90
17571;DHT22;8903;52.220;20.978;2022-12-17T08:25:09;-4.10;99.90
17571;DHT22;8903;52.220;20.978;2022-12-17T08:27:55;-4.20;99.90
17571;DHT22;8903;52.220;20.978;2022-12-17T08:30:40;-4.20;99.90
17571;DHT22;8903;52.220;20.978;2022-12-17T08:33:26;-4.20;99.90
17571;DHT22;8903;52.220;20.978;2022-12-17T08:36:10;-4.20;99.90
17571;DHT22;8903;52.220;20.978;2022-12-17T08:38:55;-4.20;99.90
17571;DHT22;8903;52.220;20.978;2022-12-17T08:41:39;-4.20;99.90
17571;DHT22;8903;52.220;20.978;2022-12-17T08:44:24;-4.20;99.90
17571;DHT22;8903;52.220;20.978;2022-12-17T08:47:10;-4.10;99.90
17571;DHT22;8903;52.220;20.978;2022-12-17T08:49:56;-4.20;99.90
17571;DHT22;8903;52.220;20.978;2022-12-17T08:52:40;-4.20;99.90
17571;DHT22;8903;52.220;20.978;2022-12-17T08:55:25;-4.20;99.90
17571;DHT22;8903;52.220;20.978;2022-12-17T08:58:09;-4.20;99.90
17571;DHT22;8903;52.220;20.978;2022-12-17T09:00:57;-4.10;99.90
17571;DHT22;8903;52.220;20.978;2022-12-17T09:03:41;-4.10;99.90
17571;DHT22;8903;52.220;20.978;2022-12-17T09:06:27;-4.10;99.90
17571;DHT22;8903;52.220;20.978;2022-12-17T09:09:12;-4.20;99.90
17571;DHT22;8903;52.220;20.978;2022-12-17T09:12:04;-4.30;99.90
17571;DHT22;8903;52.220;20.978;2022-12-17T09:14:49;-4.30;99.90
17571;DHT22;8903;52.220;20.978;2022-12-17T09:17:33;-4.40;99.90
17571;DHT22;8903;52.220;20.978;2022-12-17T09:20:17;-4.40;99.90
17571;DHT22;8903;52.220;20.978;2022-12-17T09:23:03;-4.40;99.90
17571;DHT22;8903;52.220;20.978;2022-12-17T09:25:51;-4.30;99.90
17571;DHT22;8903;52.220;20.978;2022-12-17T09:28:36;-4.30;99.90
17571;DHT22;8903;52.220;20.978;2022-12-17T09:31:20;-4.30;99.90
17571;DHT22;8903;52.220;20.978;2022-12-17T09:34:05;-4.40;99.90
17571;DHT22;8903;52.220;20.978;2022-12-17T09:36:49;-4.40;99.90
17571;DHT22;8903;52.220;20.978;2022-12-17T09:39:35;-4.50;99.90
17571;DHT22;8903;52.220;20.978;2022-12-17T09:42:23;-4.50;99.90
17571;DHT22;8903;52.220;20.978;2022-12-17T09:45:13;-4.40;99.90
17571;DHT22;8903;52.220;20.978;2022-12-17T09:48:04;-4.50;99.90
17571;DHT22;8903;52.220;20.978;2022-12-17T09:50:50;-4.50;99.90
17571;DHT22;8903;52.220;20.978;2022-12-17T09:53:37;-4.50;99.90
17571;DHT22;8903;52.220;20.978;2022-12-17T09:56:26;-4.50;99.90
17571;DHT22;8903;52.220;20.978;2022-12-17T09:59:17;-4.50;99.90
17571;DHT22;8903;52.220;20.978;2022-12-17T10:02:04;-4.50;99.90
17571;DHT22;8903;52.220;20.978;2022-12-17T10:04:52;-4.50;99.90
17571;DHT22;8903;52.220;20.978;2022-12-17T10:07:36;-4.50;99.90
17571;DHT22;8903;52.220;20.978;2022-12-17T10:10:23;-4.50;99.90
17571;DHT22;8903;52.220;20.978;2022-12-17T10:13:14;-4.40;99.90
17571;DHT22;8903;52.220;20.978;2022-12-17T10:16:23;-4.40;99.90
17571;DHT22;8903;52.220;20.978;2022-12-17T10:19:12;-4.40;99.90
17571;DHT22;8903;52.220;20.978;2022-12-17T10:22:08;-4.40;99.90
17571;DHT22;8903;52.220;20.978;2022-12-17T10:24:53;-4.40;99.90
17571;DHT22;8903;52.220;20.978;2022-12-17T10:27:37;-4.50;99.90
17571;DHT22;8903;52.220;20.978;2022-12-17T10:30:23;-4.50;99.90
17571;DHT22;8903;52.220;20.978;2022-12-17T10:33:15;-4.50;99.90
17571;DHT22;8903;52.220;20.978;2022-12-17T10:36:01;-4.60;99.90
17571;DHT22;8903;52.220;20.978;2022-12-17T10:38:52;-4.60;99.90
17571;DHT22;8903;52.220;20.978;2022-12-17T10:41:40;-4.70;99.90
17571;DHT22;8903;52.220;20.978;2022-12-17T10:44:26;-4.60;99.90
17571;DHT22;8903;52.220;20.978;2022-12-17T10:47:17;-4.60;99.90
17571;DHT22;8903;52.220;20.978;2022-12-17T10:50:03;-4.60;99.90
17571;DHT22;8903;52.220;20.978;2022-12-17T10:52:49;-4.60;99.90
17571;DHT22;8903;52.220;20.978;2022-12-17T10:55:34;-4.50;99.90
17571;DHT22;8903;52.220;20.978;2022-12-17T10:58:20;-4.50;99.90
17571;DHT22;8903;52.220;20.978;2022-12-17T11:01:08;-4.50;99.90
17571;DHT22;8903;52.220;20.978;2022-12-17T11:03:55;-4.50;99.90
17571;DHT22;8903;52.220;20.978;2022-12-17T11:06:43;-4.60;99.90
17571;DHT22;8903;52.220;20.978;2022-12-17T11:09:41;-4.60;99.90
17571;DHT22;8903;52.220;20.978;2022-12-17T11:12:31;-4.70;99.90
17571;DHT22;8903;52.220;20.978;2022-12-17T11:15:20;-4.60;99.90
17571;DHT22;8903;52.220;20.978;2022-12-17T11:18:11;-4.60;99.90
17571;DHT22;8903;52.220;20.978;2022-12-17T11:21:08;-4.60;99.90
17571;DHT22;8903;52.220;20.978;2022-12-17T11:23:54;-4.60;99.90
17571;DHT22;8903;52.220;20.978;2022-12-17T11:26:41;-4.60;99.90
17571;DHT22;8903;52.220;20.978;2022-12-17T11:29:28;-4.60;99.90
17571;DHT22;8903;52.220;20.978;2022-12-17T11:32:31;-4.70;99.90
17571;DHT22;8903;52.220;20.978;2022-12-17T11:35:22;-4.70;99.90
17571;DHT22;8903;52.220;20.978;2022-12-17T11:38:20;-4.70;99.90
17571;DHT22;8903;52.220;20.978;2022-12-17T11:41:13;-4.70;99.90
17571;DHT22;8903;52.220;20.978;2022-12-17T11:44:04;-4.70;99.90
17571;DHT22;8903;52.220;20.978;2022-12-17T11:47:04;-4.70;99.90
17571;DHT22;8903;52.220;20.978;2022-12-17T11:49:55;-4.70;99.90
17571;DHT22;8903;52.220;20.978;2022-12-17T11:52:50;-4.70;99.90
17571;DHT22;8903;52.220;20.978;2022-12-17T11:55:47;-4.60;99.90
17571;DHT22;8903;52.220;20.978;2022-12-17T11:58:38;-4.60;99.90
17571;DHT22;8903;52.220;20.978;2022-12-17T12:01:29;-4.60;99.90
17571;DHT22;8903;52.220;20.978;2022-12-17T12:04:28;-4.60;99.90
17571;DHT22;8903;52.220;20.978;2022-12-17T12:07:25;-4.60;99.90
17571;DHT22;8903;52.220;20.978;2022-12-17T12:10:17;-4.70;99.90
17571;DHT22;8903;52.220;20.978;2022-12-17T12:13:13;-4.70;99.90
17571;DHT22;8903;52.220;20.978;2022-12-17T12:16:08;-4.60;99.90
17571;DHT22;8903;52.220;20.978;2022-12-17T12:19:14;-4.50;99.90
17571;DHT22;8903;52.220;20.978;2022-12-17T12:22:06;-4.40;99.90
17571;DHT22;8903;52.220;20.978;2022-12-17T12:25:04;-4.40;99.90
17571;DHT22;8903;52.220;20.978;2022-12-17T12:28:00;-4.40;99.90
17571;DHT22;8903;52.220;20.978;2022-12-17T12:30:56;-4.30;99.90
17571;DHT22;8903;52.220;20.978;2022-12-17T12:33:51;-4.30;99.90
17571;DHT22;8903;52.220;20.978;2022-12-17T12:36:36;-4.30;99.90
17571;DHT22;8903;52.220;20.978;2022-12-17T12:39:28;-4.30;99.90
17571;DHT22;8903;52.220;20.978;2022-12-17T12:42:19;-4.30;99.90
17571;DHT22;8903;52.220;20.978;2022-12-17T12:45:13;-4.30;99.90
17571;DHT22;8903;52.220;20.978;2022-12-17T12:48:03;-4.40;99.90
17571;DHT22;8903;52.220;20.978;2022-12-17T12:50:54;-4.30;99.90
17571;DHT22;8903;52.220;20.978;2022-12-17T12:53:40;-4.30;99.90
17571;DHT22;8903;52.220;20.978;2022-12-17T12:56:32;-4.40;99.90
17571;DHT22;8903;52.220;20.978;2022-12-17T12:59:24;-4.40;99.90
17571;DHT22;8903;52.220;20.978;2022-12-17T13:02:20;-4.40;99.90
17571;DHT22;8903;52.220;20.978;2022-12-17T13:05:26;-4.40;99.90
17571;DHT22;8903;52.220;20.978;2022-12-17T13:08:01;-4.40;99.90
17571;DHT22;8903;52.220;20.978;2022-12-17T13:10:30;-4.40;99.90
17571;DHT22;8903;52.220;20.978;2022-12-17T13:13:09;-4.40;99.90
17571;DHT22;8903;52.220;20.978;2022-12-17T13:15:41;-4.40;99.90
17571;DHT22;8903;52.220;20.978;2022-12-17T13:18:18;-4.40;99.90
17571;DHT22;8903;52.220;20.978;2022-12-17T13:20:57;-4.40;99.90
17571;DHT22;8903;52.220;20.978;2022-12-17T13:23:28;-4.40;99.90
17571;DHT22;8903;52.220;20.978;2022-12-17T13:26:20;-4.40;99.90
17571;DHT22;8903;52.220;20.978;2022-12-17T13:29:03;-4.40;99.90
17571;DHT22;8903;52.220;20.978;2022-12-17T13:31:44;-4.40;99.90
17571;DHT22;8903;52.220;20.978;2022-12-17T13:34:18;-4.40;99.90
17571;DHT22;8903;52.220;20.978;2022-12-17T13:36:53;-4.40;99.90
17571;DHT22;8903;52.220;20.978;2022-12-17T13:39:31;-4.40;99.90
17571;DHT22;8903;52.220;20.978;2022-12-17T13:42:00;-4.40;99.90
17571;DHT22;8903;52.220;20.978;2022-12-17T13:44:30;-4.50;99.90
17571;DHT22;8903;52.220;20.978;2022-12-17T13:47:00;-4.50;99.90
17571;DHT22;8903;52.220;20.978;2022-12-17T13:49:28;-4.50;99.90
17571;DHT22;8903;52.220;20.978;2022-12-17T13:52:03;-4.50;99.90
17571;DHT22;8903;52.220;20.978;2022-12-17T13:54:30;-4.50;99.90
17571;DHT22;8903;52.220;20.978;2022-12-17T13:57:06;-4.50;99.90
17571;DHT22;8903;52.220;20.978;2022-12-17T13:59:34;-4.50;99.90
17571;DHT22;8903;52.220;20.978;2022-12-17T14:02:01;-4.50;99.90
17571;DHT22;8903;52.220;20.978;2022-12-17T14:04:31;-4.50;99.90
17571;DHT22;8903;52.220;20.978;2022-12-17T14:07:02;-4.50;99.90
17571;DHT22;8903;52.220;20.978;2022-12-17T14:09:36;-4.60;99.90
17571;DHT22;8903;52.220;20.978;2022-12-17T14:12:05;-4.60;99.90
17571;DHT22;8903;52.220;20.978;2022-12-17T14:14:49;-4.60;99.90
17571;DHT22;8903;52.220;20.978;2022-12-17T14:17:18;-4.60;99.90
17571;DHT22;8903;52.220;20.978;2022-12-17T14:19:46;-4.60;99.90
17571;DHT22;8903;52.220;20.978;2022-12-17T14:22:18;-4.60;99.90
17571;DHT22;8903;52.220;20.978;2022-12-17T14:24:46;-4.60;99.90
17571;DHT22;8903;52.220;20.978;2022-12-17T14:27:24;-4.60;99.90
17571;DHT22;8903;52.220;20.978;2022-12-17T14:29:52;-4.60;99.90
17571;DHT22;8903;52.220;20.978;2022-12-17T14:32:24;-4.60;99.90
17571;DHT22;8903;52.220;20.978;2022-12-17T14:34:51;-4.70;99.90
17571;DHT22;8903;52.220;20.978;2022-12-17T14:37:22;-4.70;99.90
17571;DHT22;8903;52.220;20.978;2022-12-17T14:39:53;-4.70;99.90
17571;DHT22;8903;52.220;20.978;2022-12-17T14:42:23;-4.80;99.90
17571;DHT22;8903;52.220;20.978;2022-12-17T14:44:53;-4.80;99.90
17571;DHT22;8903;52.220;20.978;2022-12-17T14:47:22;-4.80;99.90
17571;DHT22;8903;52.220;20.978;2022-12-17T14:50:04;-4.80;99.90
17571;DHT22;8903;52.220;20.978;2022-12-17T14:52:39;-4.80;99.90
17571;DHT22;8903;52.220;20.978;2022-12-17T14:58:15;-4.90;99.90
17571;DHT22;8903;52.220;20.978;2022-12-17T15:00:46;-4.90;99.90
17571;DHT22;8903;52.220;20.978;2022-12-17T15:03:18;-5.00;99.90
17571;DHT22;8903;52.220;20.978;2022-12-17T15:05:52;-5.00;99.90
17571;DHT22;8903;52.220;20.978;2022-12-17T15:08:22;-5.00;99.90
17571;DHT22;8903;52.220;20.978;2022-12-17T15:10:49;-5.00;99.90
17571;DHT22;8903;52.220;20.978;2022-12-17T15:13:15;-5.00;99.90
17571;DHT22;8903;52.220;20.978;2022-12-17T15:15:42;-5.10;99.90
17571;DHT22;8903;52.220;20.978;2022-12-17T15:18:09;-5.10;99.90
17571;DHT22;8903;52.220;20.978;2022-12-17T15:20:37;-5.10;99.90
17571;DHT22;8903;52.220;20.978;2022-12-17T15:23:04;-5.10;99.90
17571;DHT22;8903;52.220;20.978;2022-12-17T15:25:33;-5.10;99.90
17571;DHT22;8903;52.220;20.978;2022-12-17T15:28:00;-5.10;99.90
17571;DHT22;8903;52.220;20.978;2022-12-17T15:30:26;-5.20;99.90
17571;DHT22;8903;52.220;20.978;2022-12-17T15:32:53;-5.20;99.90
17571;DHT22;8903;52.220;20.978;2022-12-17T15:35:20;-5.20;99.90
17571;DHT22;8903;52.220;20.978;2022-12-17T15:37:47;-5.20;99.90
17571;DHT22;8903;52.220;20.978;2022-12-17T15:40:14;-5.20;99.90
17571;DHT22;8903;52.220;20.978;2022-12-17T15:42:42;-5.20;99.90
17571;DHT22;8903;52.220;20.978;2022-12-17T15:45:26;-5.20;99.90
17571;DHT22;8903;52.220;20.978;2022-12-17T15:47:53;-5.20;99.90
17571;DHT22;8903;52.220;20.978;2022-12-17T15:50:20;-5.20;99.90
17571;DHT22;8903;52.220;20.978;2022-12-17T15:52:47;-5.20;99.90
17571;DHT22;8903;52.220;20.978;2022-12-17T15:55:14;-5.20;99.90
17571;DHT22;8903;52.220;20.978;2022-12-17T15:57:43;-5.20;99.90
17571;DHT22;8903;52.220;20.978;2022-12-17T16:00:10;-5.20;99.90
17571;DHT22;8903;52.220;20.978;2022-12-17T16:02:38;-5.20;99.90
17571;DHT22;8903;52.220;20.978;2022-12-17T16:05:05;-5.20;99.90
17571;DHT22;8903;52.220;20.978;2022-12-17T16:07:32;-5.10;99.90
17571;DHT22;8903;52.220;20.978;2022-12-17T16:10:00;-5.10;99.90
17571;DHT22;8903;52.220;20.978;2022-12-17T16:12:27;-5.20;99.90
17571;DHT22;8903;52.220;20.978;2022-12-17T16:14:55;-5.20;99.90
17571;DHT22;8903;52.220;20.978;2022-12-17T16:17:22;-5.20;99.90
17571;DHT22;8903;52.220;20.978;2022-12-17T16:19:49;-5.20;99.90
17571;DHT22;8903;52.220;20.978;2022-12-17T16:22:16;-5.30;99.90
17571;DHT22;8903;52.220;20.978;2022-12-17T16:24:43;-5.30;99.90
17571;DHT22;8903;52.220;20.978;2022-12-17T16:27:10;-5.30;99.90
17571;DHT22;8903;52.220;20.978;2022-12-17T16:29:37;-5.30;99.90
17571;DHT22;8903;52.220;20.978;2022-12-17T16:32:05;-5.30;99.90
17571;DHT22;8903;52.220;20.978;2022-12-17T16:34:32;-5.30;99.90
17571;DHT22;8903;52.220;20.978;2022-12-17T16:36:59;-5.30;99.90
17571;DHT22;8903;52.220;20.978;2022-12-17T16:39:26;-5.30;99.90
17571;DHT22;8903;52.220;20.978;2022-12-17T16:41:53;-5.30;99.90
17571;DHT22;8903;52.220;20.978;2022-12-17T16:44:20;-5.40;99.90
17571;DHT22;8903;52.220;20.978;2022-12-17T16:46:47;-5.40;99.90
17571;DHT22;8903;52.220;20.978;2022-12-17T16:49:17;-5.40;99.90
17571;DHT22;8903;52.220;20.978;2022-12-17T16:51:47;-5.50;99.90
17571;DHT22;8903;52.220;20.978;2022-12-17T16:54:16;-5.50;99.90
17571;DHT22;8903;52.220;20.978;2022-12-17T16:56:43;-5.50;99.90
17571;DHT22;8903;52.220;20.978;2022-12-17T16:59:12;-5.50;99.90
17571;DHT22;8903;52.220;20.978;2022-12-17T17:01:41;-5.60;99.90
17571;DHT22;8903;52.220;20.978;2022-12-17T17:04:09;-5.60;99.90
17571;DHT22;8903;52.220;20.978;2022-12-17T17:06:39;-5.60;99.90
17571;DHT22;8903;52.220;20.978;2022-12-17T17:09:07;-5.60;99.90
17571;DHT22;8903;52.220;20.978;2022-12-17T17:11:34;-5.60;99.90